createdAt,value
2019-05-14T00:02:23.341Z,84.00
2019-05-14T00:04:53.697Z,84.28
2019-05-14T00:07:23.809Z,84.08
2019-05-14T00:09:54.065Z,83.77
2019-05-14T00:12:25.301Z,84.45
2019-05-14T00:14:55.420Z,84.71
2019-05-14T00:17:25.687Z,85.33
2019-05-14T00:20:06.525Z,84.98
2019-05-14T00:22:27.760Z,85.13
2019-05-14T00:24:58.101Z,85.44
2019-05-14T00:27:28.441Z,85.53
2019-05-14T00:29:58.607Z,86.43
2019-05-14T00:32:28.842Z,87.48
2019-05-14T00:35:02.076Z,87.39
2019-05-14T00:37:32.268Z,87.03
2019-05-14T00:40:02.448Z,87.91
2019-05-14T00:42:33.040Z,88.50
2019-05-14T00:45:03.458Z,88.88
2019-05-14T00:47:33.820Z,88.22
2019-05-14T00:50:04.213Z,88.24
2019-05-14T00:52:34.318Z,89.00
2019-05-14T00:55:04.630Z,88.73
2019-05-14T00:57:34.727Z,88.84
2019-05-14T01:00:05.004Z,88.94
2019-05-14T01:02:35.104Z,88.70
2019-05-14T01:05:06.229Z,88.62
2019-05-14T01:07:36.533Z,89.19
2019-05-14T01:10:08.430Z,88.76
2019-05-14T01:12:41.235Z,89.26
2019-05-14T01:15:14.172Z,89.31
2019-05-14T01:17:43.801Z,89.22
2019-05-14T01:20:15.084Z,89.43
2019-05-14T01:22:45.748Z,89.67
2019-05-14T01:25:16.403Z,91.42
2019-05-14T01:27:46.791Z,91.50
2019-05-14T01:30:17.277Z,91.16
2019-05-14T01:32:47.432Z,90.77
2019-05-14T01:35:17.671Z,90.41
2019-05-14T01:37:47.885Z,91.13
2019-05-14T01:40:18.653Z,92.33
2019-05-14T01:42:49.037Z,91.75
2019-05-14T01:45:26.968Z,91.94
2019-05-14T01:47:52.080Z,91.81
2019-05-14T01:50:22.522Z,91.81
2019-05-14T01:52:52.719Z,92.06
2019-05-14T01:55:22.882Z,92.01
2019-05-14T02:05:31.389Z,92.98
2019-05-14T02:08:02.024Z,92.65
2019-05-14T02:10:33.872Z,92.44
2019-05-14T02:13:04.248Z,92.42
2019-05-14T02:15:39.715Z,92.49
2019-05-14T02:18:06.380Z,93.00
2019-05-14T02:20:36.596Z,92.78
2019-05-14T02:23:06.713Z,92.64
2019-05-14T02:25:37.457Z,92.24
2019-05-14T02:28:07.930Z,92.82
2019-05-14T02:30:48.249Z,92.56
2019-05-14T02:33:10.239Z,92.43
2019-05-14T02:35:40.442Z,92.31
2019-05-14T02:38:10.617Z,92.60
2019-05-14T02:40:40.810Z,93.47
2019-05-14T02:43:11.062Z,93.28
2019-05-14T02:46:00.706Z,93.23
2019-05-14T02:48:13.466Z,93.11
2019-05-14T02:50:43.718Z,93.46
2019-05-14T02:53:14.013Z,93.21
2019-05-14T02:55:44.279Z,93.49
2019-05-14T02:58:14.597Z,93.63
2019-05-14T03:00:44.898Z,93.60
2019-05-14T03:03:15.462Z,94.55
2019-05-14T03:05:45.722Z,94.79
2019-05-14T03:08:19.453Z,94.90
2019-05-14T03:10:50.183Z,94.32
2019-05-14T03:13:20.567Z,94.42
2019-05-14T03:15:51.103Z,94.23
2019-05-14T03:18:21.699Z,94.15
2019-05-14T03:20:52.036Z,94.28
2019-05-14T03:23:23.262Z,94.16
2019-05-14T03:25:53.593Z,93.80
2019-05-14T03:28:23.840Z,93.73
2019-05-14T03:30:54.353Z,93.72
2019-05-14T03:33:24.748Z,93.85
2019-05-14T03:36:01.302Z,94.22
2019-05-14T03:38:29.621Z,94.01
2019-05-14T03:41:00.263Z,94.06
2019-05-14T03:43:31.788Z,94.25
2019-05-14T03:46:02.100Z,94.42
2019-05-14T03:48:32.577Z,94.75
2019-05-14T03:51:03.949Z,95.03
2019-05-14T03:53:52.167Z,94.66
2019-05-14T03:56:06.307Z,94.56
2019-05-14T03:58:39.262Z,94.27
2019-05-14T04:01:09.609Z,94.41
2019-05-14T04:03:40.214Z,94.33
2019-05-14T04:06:10.921Z,94.34
2019-05-14T04:08:42.297Z,94.28
2019-05-14T04:11:12.856Z,94.39
2019-05-14T04:13:44.768Z,94.47
2019-05-14T04:16:15.608Z,94.51
2019-05-14T04:18:50.081Z,94.89
2019-05-14T04:21:21.761Z,94.91
2019-05-14T04:23:52.123Z,94.71
2019-05-14T04:26:22.578Z,94.56
2019-05-14T04:28:53.286Z,94.69
2019-05-14T04:31:23.708Z,94.24
2019-05-14T04:33:58.926Z,94.22
2019-05-14T04:36:29.982Z,93.37
2019-05-14T04:39:00.738Z,92.86
2019-05-14T04:41:31.293Z,92.37
2019-05-14T04:44:01.545Z,91.87
2019-05-14T04:46:32.054Z,91.22
2019-05-14T04:49:02.318Z,90.55
2019-05-14T04:51:32.572Z,90.32
2019-05-14T04:54:03.080Z,90.55
2019-05-14T04:56:33.472Z,87.97
2019-05-14T04:59:04.297Z,87.16
2019-05-14T05:01:34.991Z,86.93
2019-05-14T05:04:09.254Z,85.72
2019-05-14T05:06:39.675Z,85.61
2019-05-14T05:09:11.627Z,84.36
2019-05-14T05:11:42.407Z,82.66
2019-05-14T05:14:13.036Z,81.09
2019-05-14T05:16:44.252Z,79.24
2019-05-14T05:19:15.018Z,77.19
2019-05-14T05:21:47.980Z,75.15
2019-05-14T05:24:18.396Z,72.85
2019-05-14T05:26:48.772Z,69.40
2019-05-14T05:29:19.027Z,68.30
2019-05-14T05:31:49.226Z,67.54
2019-05-14T05:34:19.444Z,67.93
2019-05-14T05:36:49.646Z,63.38
2019-05-14T05:39:19.888Z,63.63
2019-05-14T05:41:50.047Z,61.79
2019-05-14T05:44:20.330Z,61.38
2019-05-14T05:46:50.669Z,61.32
2019-05-14T05:49:20.817Z,58.75
2019-05-14T05:51:51.502Z,59.09
2019-05-14T05:54:21.677Z,58.74
2019-05-14T05:56:51.963Z,55.17
2019-05-14T05:59:22.164Z,54.42
2019-05-14T06:01:54.294Z,53.73
2019-05-14T06:04:24.377Z,52.66
2019-05-14T06:06:54.646Z,51.48
2019-05-14T06:09:26.021Z,48.29
2019-05-14T06:11:56.169Z,48.34
2019-05-14T06:14:29.191Z,46.41
2019-05-14T06:17:00.642Z,45.56
2019-05-14T06:19:30.950Z,46.78
2019-05-14T06:22:04.049Z,46.13
2019-05-14T06:24:33.152Z,42.29
2019-05-14T06:27:03.308Z,42.00
2019-05-14T06:29:33.590Z,42.00
2019-05-14T06:32:03.832Z,41.02
2019-05-14T06:34:35.067Z,41.60
2019-05-14T06:37:08.189Z,41.17
2019-05-14T06:39:39.163Z,39.00
2019-05-14T06:42:09.964Z,38.01
2019-05-14T06:44:40.563Z,38.88
2019-05-14T06:47:10.873Z,36.75
2019-05-14T06:49:41.678Z,36.06
2019-05-14T06:52:12.309Z,35.59
2019-05-14T06:54:43.031Z,35.28
2019-05-14T06:57:13.569Z,34.25
2019-05-14T06:59:43.901Z,34.21
2019-05-14T07:02:14.598Z,34.71
2019-05-14T07:04:45.045Z,35.58
2019-05-14T07:07:15.399Z,33.10
2019-05-14T07:09:45.943Z,32.74
2019-05-14T07:12:18.936Z,33.18
2019-05-14T07:14:48.600Z,32.37
2019-05-14T07:17:19.051Z,32.45
2019-05-14T07:19:49.688Z,33.17
2019-05-14T07:22:20.112Z,32.03
2019-05-14T07:24:51.694Z,32.37
2019-05-14T07:27:24.442Z,33.83
2019-05-14T07:29:54.547Z,33.83
2019-05-14T07:32:25.137Z,32.86
2019-05-14T07:34:55.959Z,31.45
2019-05-14T07:37:28.450Z,30.39
2019-05-14T07:39:58.298Z,30.39
2019-05-14T07:42:29.043Z,30.83
2019-05-14T07:44:59.720Z,30.20
2019-05-14T07:47:29.998Z,29.80
2019-05-14T07:50:00.308Z,28.82
2019-05-14T07:52:30.593Z,29.87
2019-05-14T07:55:00.922Z,28.42
2019-05-14T07:57:31.169Z,27.74
2019-05-14T08:00:01.819Z,27.35
2019-05-14T08:02:32.066Z,28.15
2019-05-14T08:05:02.414Z,29.38
2019-05-14T08:07:32.788Z,28.82
2019-05-14T08:10:03.463Z,26.93
2019-05-14T08:12:33.872Z,28.28
2019-05-14T08:15:17.477Z,25.77
2019-05-14T08:17:38.629Z,26.57
2019-05-14T08:20:09.006Z,26.08
2019-05-14T08:22:39.538Z,25.36
2019-05-14T08:25:10.875Z,25.64
2019-05-14T08:27:41.074Z,24.60
2019-05-14T08:30:12.053Z,24.56
2019-05-14T08:32:42.395Z,25.67
2019-05-14T08:35:12.679Z,25.30
2019-05-14T08:37:42.867Z,24.33
2019-05-14T08:40:16.422Z,24.49
2019-05-14T08:42:46.139Z,23.61
2019-05-14T08:45:18.819Z,23.17
2019-05-14T08:47:48.749Z,21.82
2019-05-14T08:50:19.717Z,22.24
2019-05-14T08:52:49.923Z,23.28
2019-05-14T08:55:20.164Z,23.99
2019-05-14T08:57:50.831Z,24.59
2019-05-14T09:00:21.148Z,25.30
2019-05-14T09:02:52.673Z,25.57
2019-05-14T09:05:22.780Z,26.15
2019-05-14T09:07:53.036Z,26.01
2019-05-14T09:10:23.227Z,28.05
2019-05-14T09:12:54.819Z,28.30
2019-05-14T09:15:25.464Z,28.58
2019-05-14T09:17:55.643Z,29.14
2019-05-14T09:20:25.986Z,28.32
2019-05-14T09:22:56.328Z,28.04
2019-05-14T09:25:29.026Z,27.86
2019-05-14T09:27:58.767Z,26.80
2019-05-14T09:30:29.087Z,24.77
2019-05-14T09:33:02.576Z,25.86
2019-05-14T09:35:32.869Z,27.20
2019-05-14T09:38:03.208Z,27.48
2019-05-14T09:40:33.468Z,28.86
2019-05-14T09:43:03.819Z,29.78
2019-05-14T09:45:34.333Z,29.64
2019-05-14T09:48:04.837Z,30.35
2019-05-14T09:50:35.156Z,30.81
2019-05-14T09:53:06.019Z,30.00
2019-05-14T09:55:38.681Z,31.05
2019-05-14T09:58:08.534Z,27.28
2019-05-14T10:00:39.169Z,25.83
2019-05-14T10:03:09.993Z,24.90
2019-05-14T10:05:40.339Z,25.64
2019-05-14T10:08:11.693Z,28.64
2019-05-14T10:10:41.974Z,28.56
2019-05-14T10:13:12.268Z,28.13
2019-05-14T10:15:42.707Z,29.98
2019-05-14T10:18:12.902Z,31.17
2019-05-14T10:20:45.922Z,31.65
2019-05-14T10:23:15.683Z,31.96
2019-05-14T10:25:45.964Z,31.43
2019-05-14T10:28:19.082Z,31.97
2019-05-14T10:30:49.184Z,29.58
2019-05-14T10:33:19.730Z,28.35
2019-05-14T10:35:50.160Z,28.33
2019-05-14T10:38:20.429Z,27.06
2019-05-14T10:40:50.789Z,25.03
2019-05-14T10:43:21.198Z,25.70
2019-05-14T10:45:51.820Z,25.35
2019-05-14T10:48:22.401Z,27.53
2019-05-14T10:50:59.923Z,25.25
2019-05-14T10:53:24.598Z,26.42
2019-05-14T10:55:55.168Z,25.72
2019-05-14T10:58:25.474Z,27.38
2019-05-14T11:00:55.799Z,26.28
2019-05-14T11:03:30.145Z,27.36
2019-05-14T11:06:00.728Z,28.18
2019-05-14T11:08:31.357Z,28.40
2019-05-14T11:11:04.209Z,29.76
2019-05-14T11:13:34.630Z,28.25
2019-05-14T11:16:05.384Z,25.58
2019-05-14T11:18:36.024Z,24.85
2019-05-14T11:21:19.841Z,21.51
2019-05-14T11:23:39.914Z,21.54
2019-05-14T11:26:10.562Z,22.57
2019-05-14T11:28:41.074Z,22.53
2019-05-14T11:31:11.608Z,21.09
2019-05-14T11:33:42.349Z,21.93
2019-05-14T11:36:12.964Z,24.59
2019-05-14T11:38:43.950Z,25.50
2019-05-14T11:41:14.669Z,24.04
2019-05-14T11:43:45.165Z,20.74
2019-05-14T11:46:16.009Z,20.96
2019-05-14T11:48:48.948Z,22.20
2019-05-14T11:51:23.874Z,23.23
2019-05-14T11:53:51.038Z,23.10
2019-05-14T11:56:21.782Z,22.32
2019-05-14T11:58:52.539Z,23.20
2019-05-14T12:01:22.820Z,22.79
2019-05-14T12:03:53.541Z,20.00
2019-05-14T12:06:23.952Z,20.10
2019-05-14T12:08:54.753Z,18.65
2019-05-14T12:11:25.225Z,17.82
2019-05-14T12:13:55.831Z,19.18
2019-05-14T12:16:28.927Z,18.62
2019-05-14T12:18:59.139Z,18.29
2019-05-14T12:21:29.874Z,17.89
2019-05-14T12:24:04.227Z,16.82
2019-05-14T12:26:32.836Z,16.62
2019-05-14T12:29:03.695Z,15.87
2019-05-14T12:31:34.539Z,15.43
2019-05-14T12:34:05.011Z,15.97
2019-05-14T12:36:35.461Z,15.18
2019-05-14T12:39:09.701Z,15.34
2019-05-14T12:41:40.262Z,17.50
2019-05-14T12:44:10.703Z,19.51
2019-05-14T12:46:41.368Z,22.43
2019-05-14T12:49:12.018Z,21.40
2019-05-14T12:51:43.979Z,21.39
2019-05-14T12:54:14.459Z,21.25
2019-05-14T12:56:45.215Z,22.05
2019-05-14T12:59:15.750Z,23.99
2019-05-14T13:01:49.006Z,23.74
2019-05-14T13:04:20.142Z,24.70
2019-05-14T13:06:50.974Z,24.83
2019-05-14T13:09:22.742Z,24.94
2019-05-14T13:11:53.251Z,24.07
2019-05-14T13:14:23.704Z,24.22
2019-05-14T13:16:54.659Z,25.76
2019-05-14T13:19:25.097Z,25.94
2019-05-14T13:22:12.162Z,26.57
2019-05-14T13:24:28.755Z,27.38
2019-05-14T13:26:59.809Z,27.18
2019-05-14T13:29:30.443Z,28.75
2019-05-14T13:32:00.910Z,28.69
2019-05-14T13:34:31.206Z,27.19
2019-05-14T13:37:01.467Z,24.92
2019-05-14T13:39:31.677Z,25.48
2019-05-14T13:42:02.521Z,27.56
2019-05-14T13:44:32.960Z,27.82
2019-05-14T13:47:03.497Z,28.73
2019-05-14T13:49:33.830Z,28.37
2019-05-14T13:52:04.186Z,29.67
2019-05-14T13:54:34.543Z,29.50
2019-05-14T13:57:05.240Z,28.42
2019-05-14T13:59:44.011Z,28.80
2019-05-14T14:02:09.773Z,28.23
2019-05-14T14:04:39.914Z,28.03
2019-05-14T14:07:10.326Z,27.32
2019-05-14T14:09:40.761Z,27.19
2019-05-14T14:12:11.008Z,28.22
2019-05-14T14:14:41.233Z,29.08
2019-05-14T14:17:11.706Z,28.82
2019-05-14T14:19:42.194Z,28.39
2019-05-14T14:22:14.257Z,30.27
2019-05-14T14:24:44.666Z,29.01
2019-05-14T14:27:14.949Z,29.84
2019-05-14T14:29:45.182Z,27.41
2019-05-14T14:32:15.456Z,27.27
2019-05-14T14:34:45.713Z,25.75
2019-05-14T14:37:18.990Z,27.97
2019-05-14T14:39:48.936Z,29.03
2019-05-14T14:42:20.170Z,29.53
2019-05-14T14:44:50.461Z,30.17
2019-05-14T14:47:21.212Z,30.57
2019-05-14T14:49:52.149Z,30.35
2019-05-14T14:52:23.704Z,28.46
2019-05-14T14:54:54.143Z,28.17
2019-05-14T14:57:24.938Z,28.00
2019-05-14T14:59:56.294Z,29.02
2019-05-14T15:02:28.758Z,29.25
2019-05-14T15:04:59.588Z,29.63
2019-05-14T15:07:30.493Z,30.45
2019-05-14T15:10:00.885Z,30.46
2019-05-14T15:12:35.518Z,29.69
2019-05-14T15:15:03.522Z,29.02
2019-05-14T15:17:33.780Z,29.17
2019-05-14T15:20:05.218Z,30.32
2019-05-14T15:22:35.933Z,29.17
2019-05-14T15:25:08.837Z,28.92
2019-05-14T15:27:38.861Z,29.75
2019-05-14T15:30:10.438Z,29.37
2019-05-14T15:32:40.955Z,28.60
2019-05-14T15:35:11.821Z,29.86
2019-05-14T15:37:43.244Z,30.83
2019-05-14T15:40:14.719Z,32.04
2019-05-14T15:42:45.115Z,31.38
2019-05-14T15:45:17.492Z,32.13
2019-05-14T15:47:48.695Z,31.72
2019-05-14T15:50:20.042Z,31.93
2019-05-14T15:52:50.848Z,32.77
2019-05-14T15:55:21.123Z,32.94
2019-05-14T15:57:51.581Z,33.60
2019-05-14T16:00:22.203Z,33.84
2019-05-14T16:02:52.555Z,32.97
2019-05-14T16:05:23.045Z,32.94
2019-05-14T16:07:53.289Z,33.72
2019-05-14T16:10:23.941Z,33.80
2019-05-14T16:12:54.420Z,34.36
2019-05-14T16:15:24.813Z,34.51
2019-05-14T16:18:07.185Z,35.15
2019-05-14T16:20:29.615Z,35.28
2019-05-14T16:22:59.614Z,35.68
2019-05-14T16:25:30.140Z,35.25
2019-05-14T16:28:00.676Z,35.51
2019-05-14T16:30:31.237Z,34.87
2019-05-14T16:33:01.659Z,34.35
2019-05-14T16:35:33.029Z,34.28
2019-05-14T16:38:03.413Z,33.19
2019-05-14T16:40:33.711Z,32.77
2019-05-14T16:43:04.338Z,33.54
2019-05-14T16:45:35.003Z,33.47
2019-05-14T16:48:10.962Z,32.37
2019-05-14T16:50:38.069Z,34.13
2019-05-14T16:53:11.719Z,33.96
2019-05-14T16:55:41.715Z,33.18
2019-05-14T16:58:11.940Z,34.11
2019-05-14T17:00:42.831Z,35.25
2019-05-14T17:03:13.290Z,35.67
2019-05-14T17:05:44.875Z,36.69
2019-05-14T17:08:15.245Z,36.39
2019-05-14T17:10:45.451Z,37.19
2019-05-14T17:13:17.847Z,36.80
2019-05-14T17:15:48.191Z,37.31
2019-05-14T17:18:19.361Z,37.23
2019-05-14T17:20:50.039Z,36.56
2019-05-14T17:23:20.411Z,36.41
2019-05-14T17:25:50.813Z,36.54
2019-05-14T17:28:21.405Z,37.14
2019-05-14T17:30:51.867Z,36.00
2019-05-14T17:33:22.183Z,36.81
2019-05-14T17:35:52.586Z,36.40
2019-05-14T17:38:22.890Z,36.05
2019-05-14T17:40:53.600Z,37.01
2019-05-14T17:43:23.936Z,36.95
2019-05-14T17:45:58.706Z,37.08
2019-05-14T17:48:29.094Z,37.68
2019-05-14T17:50:59.667Z,37.93
2019-05-14T17:53:30.254Z,37.89
2019-05-14T17:56:00.857Z,37.89
2019-05-14T17:58:31.225Z,38.04
2019-05-14T18:01:02.051Z,38.48
2019-05-14T18:03:33.608Z,38.27
2019-05-14T18:06:04.592Z,38.50
2019-05-14T18:08:35.488Z,38.38
2019-05-14T18:11:08.795Z,38.68
2019-05-14T18:13:39.721Z,39.22
2019-05-14T18:16:10.329Z,39.37
2019-05-14T18:18:41.476Z,40.47
2019-05-14T18:21:12.633Z,40.03
2019-05-14T18:23:43.360Z,40.47
2019-05-14T18:26:14.368Z,40.81
2019-05-14T18:28:45.317Z,41.01
2019-05-14T18:31:15.829Z,41.26
2019-05-14T18:33:49.151Z,41.67
2019-05-14T18:36:19.681Z,41.74
2019-05-14T18:38:52.660Z,41.85
2019-05-14T18:41:23.199Z,41.90
2019-05-14T18:43:54.125Z,41.71
2019-05-14T18:46:25.375Z,41.82
2019-05-14T18:48:56.121Z,41.90
2019-05-14T18:51:28.744Z,42.36
2019-05-14T18:53:59.385Z,42.71
2019-05-14T18:56:30.076Z,42.91
2019-05-14T18:59:01.544Z,42.90
2019-05-14T19:01:32.271Z,43.56
2019-05-14T19:04:03.310Z,43.80
2019-05-14T19:06:33.701Z,44.21
2019-05-14T19:09:05.733Z,44.65
2019-05-14T19:11:38.757Z,44.68
2019-05-14T19:14:09.410Z,44.96
2019-05-14T19:16:48.957Z,45.13
2019-05-14T19:19:20.678Z,45.85
2019-05-14T19:21:51.495Z,46.63
2019-05-14T19:24:25.610Z,48.02
2019-05-14T19:26:59.370Z,49.63
2019-05-14T19:29:29.543Z,51.75
2019-05-14T19:32:00.323Z,51.85
2019-05-14T19:34:31.493Z,52.50
2019-05-14T19:37:02.235Z,54.67
2019-05-14T19:39:33.004Z,54.45
2019-05-14T19:42:03.751Z,54.69
2019-05-14T19:44:34.562Z,54.11
2019-05-14T19:47:05.855Z,53.99
2019-05-14T19:49:38.223Z,50.49
2019-05-14T19:52:08.701Z,49.44
2019-05-14T19:54:39.295Z,48.71
2019-05-14T19:57:10.169Z,48.44
2019-05-14T19:59:40.885Z,47.89
2019-05-14T20:02:11.822Z,47.93
2019-05-14T20:04:42.636Z,51.47
2019-05-14T20:07:14.373Z,51.47
2019-05-14T20:09:45.063Z,49.27
2019-05-14T20:12:18.087Z,49.44
2019-05-14T20:14:49.047Z,49.73
2019-05-14T20:17:20.287Z,50.07
2019-05-14T20:19:51.064Z,50.20
2019-05-14T20:22:21.705Z,50.91
2019-05-14T20:24:52.520Z,51.06
2019-05-14T20:27:23.234Z,51.52
2019-05-14T20:29:53.772Z,51.75
2019-05-14T20:32:24.511Z,52.16
2019-05-14T20:34:55.046Z,52.67
2019-05-14T20:37:25.690Z,53.37
2019-05-14T20:39:56.272Z,53.30
2019-05-14T20:42:28.990Z,53.77
2019-05-14T20:44:59.835Z,54.64
2019-05-14T20:47:32.431Z,54.95
2019-05-14T20:50:03.631Z,55.23
2019-05-14T20:52:34.296Z,56.08
2019-05-14T20:55:05.437Z,56.39
2019-05-14T20:57:38.275Z,56.33
2019-05-14T21:00:11.646Z,57.08
2019-05-14T21:02:42.259Z,57.32
2019-05-14T21:05:14.420Z,57.90
2019-05-14T21:07:49.283Z,58.38
2019-05-14T21:10:21.505Z,58.70
2019-05-14T21:12:52.119Z,59.09
2019-05-14T21:15:22.661Z,59.26
2019-05-14T21:17:53.088Z,59.15
2019-05-14T21:20:25.003Z,59.58
2019-05-14T21:22:55.309Z,59.84
2019-05-14T21:25:25.785Z,59.95
2019-05-14T21:27:58.786Z,60.14
2019-05-14T21:30:30.332Z,60.44
2019-05-14T21:33:01.085Z,60.63
2019-05-14T21:35:31.484Z,61.62
2019-05-14T21:38:01.594Z,61.08
2019-05-14T21:40:32.229Z,61.34
2019-05-14T21:43:04.410Z,61.18
2019-05-14T21:45:34.851Z,61.92
2019-05-14T21:48:05.139Z,61.36
2019-05-14T21:50:35.670Z,62.25
2019-05-14T21:53:08.209Z,62.59
2019-05-14T21:55:38.787Z,62.20
2019-05-14T21:58:11.854Z,62.70
2019-05-14T22:00:48.305Z,63.31
2019-05-14T22:03:20.584Z,64.39
2019-05-14T22:05:51.627Z,64.73
2019-05-14T22:08:23.427Z,66.77
2019-05-14T22:10:53.702Z,67.86
2019-05-14T22:13:24.639Z,67.64
2019-05-14T22:15:55.192Z,67.73
2019-05-14T22:18:27.755Z,68.93
2019-05-14T22:21:00.352Z,68.54
2019-05-14T22:23:30.574Z,68.93
2019-05-14T22:26:00.683Z,68.59
2019-05-14T22:28:30.891Z,68.62
2019-05-14T22:31:01.094Z,69.57
2019-05-14T22:33:31.234Z,70.57
2019-05-14T22:36:01.462Z,72.09
2019-05-14T22:38:31.893Z,71.43
2019-05-14T22:41:02.262Z,70.72
2019-05-14T22:43:32.542Z,70.34
2019-05-14T22:46:02.883Z,71.39
2019-05-14T22:48:33.332Z,71.56
2019-05-14T22:51:03.596Z,71.20
2019-05-14T22:53:33.891Z,72.77
2019-05-14T22:56:04.187Z,73.06
2019-05-14T22:58:34.459Z,73.55
2019-05-14T23:01:14.215Z,74.17
2019-05-14T23:03:39.364Z,74.35
2019-05-14T23:06:09.150Z,74.78
2019-05-14T23:08:39.795Z,75.03
2019-05-14T23:11:10.027Z,75.00
2019-05-14T23:13:40.441Z,74.89
2019-05-14T23:16:11.357Z,74.94
2019-05-14T23:18:43.889Z,75.52
2019-05-14T23:21:14.006Z,76.09
2019-05-14T23:23:44.193Z,75.77
2019-05-14T23:26:14.370Z,76.26
2019-05-14T23:28:45.820Z,77.15
2019-05-14T23:31:16.389Z,76.85
2019-05-14T23:33:49.054Z,76.77
2019-05-14T23:36:19.791Z,77.87
2019-05-14T23:38:50.245Z,77.95
2019-05-14T23:41:20.396Z,77.64
2019-05-14T23:43:50.550Z,77.83
2019-05-14T23:46:20.806Z,78.21
2019-05-14T23:48:50.961Z,78.39
2019-05-14T23:51:21.109Z,78.55
2019-05-14T23:53:51.274Z,78.79
2019-05-14T23:56:21.420Z,79.01
2019-05-14T23:59:01.081Z,79.56
